sensor_id;sensor_type;location;lat;lon;timestamp;P1;durP1;ratioP1;P2;durP2;ratioP2
16133;SDS011;8172;45.018;5.972;2023-05-02T00:04:24;4.50;;;4.07;;
16133;SDS011;8172;45.018;5.972;2023-05-02T00:09:32;39.83;;;5.83;;
16133;SDS011;8172;45.018;5.972;2023-05-02T00:14:41;3.17;;;2.80;;
16133;SDS011;8172;45.018;5.972;2023-05-02T00:19:50;58.33;;;5.73;;
16133;SDS011;8172;45.018;5.972;2023-05-02T00:24:58;9.00;;;4.20;;
16133;SDS011;8172;45.018;5.972;2023-05-02T00:30:06;4.00;;;3.40;;
16133;SDS011;8172;45.018;5.972;2023-05-02T00:35:15;3.30;;;3.00;;
16133;SDS011;8172;45.018;5.972;2023-05-02T00:40:22;3.97;;;3.50;;
16133;SDS011;8172;45.018;5.972;2023-05-02T00:45:31;6.03;;;4.00;;
16133;SDS011;8172;45.018;5.972;2023-05-02T00:50:39;4.30;;;3.90;;
16133;SDS011;8172;45.018;5.972;2023-05-02T00:55:48;5.90;;;3.83;;
16133;SDS011;8172;45.018;5.972;2023-05-02T01:01:01;9.43;;;4.30;;
16133;SDS011;8172;45.018;5.972;2023-05-02T01:11:23;4.43;;;4.03;;
16133;SDS011;8172;45.018;5.972;2023-05-02T01:16:31;4.40;;;3.83;;
16133;SDS011;8172;45.018;5.972;2023-05-02T01:21:42;5.03;;;4.53;;
16133;SDS011;8172;45.018;5.972;2023-05-02T01:32:02;108.33;;;7.70;;
16133;SDS011;8172;45.018;5.972;2023-05-02T01:37:12;6.07;;;4.40;;
16133;SDS011;8172;45.018;5.972;2023-05-02T01:42:22;5.40;;;4.83;;
16133;SDS011;8172;45.018;5.972;2023-05-02T01:47:32;15.13;;;5.40;;
16133;SDS011;8172;45.018;5.972;2023-05-02T01:52:42;8.77;;;5.00;;
16133;SDS011;8172;45.018;5.972;2023-05-02T01:57:54;29.33;;;5.53;;
16133;SDS011;8172;45.018;5.972;2023-05-02T02:03:07;4.30;;;3.90;;
16133;SDS011;8172;45.018;5.972;2023-05-02T02:08:16;4.50;;;4.10;;
16133;SDS011;8172;45.018;5.972;2023-05-02T02:13:26;3.57;;;3.23;;
16133;SDS011;8172;45.018;5.972;2023-05-02T02:18:36;5.30;;;3.70;;
16133;SDS011;8172;45.018;5.972;2023-05-02T02:23:46;3.23;;;2.93;;
16133;SDS011;8172;45.018;5.972;2023-05-02T02:28:56;3.13;;;2.57;;
16133;SDS011;8172;45.018;5.972;2023-05-02T02:34:06;3.10;;;2.80;;
16133;SDS011;8172;45.018;5.972;2023-05-02T02:54:45;14.60;;;4.40;;
16133;SDS011;8172;45.018;5.972;2023-05-02T03:05:04;15.77;;;4.77;;
16133;SDS011;8172;45.018;5.972;2023-05-02T03:10:13;4.30;;;3.90;;
16133;SDS011;8172;45.018;5.972;2023-05-02T03:20:34;4.10;;;3.70;;
16133;SDS011;8172;45.018;5.972;2023-05-02T03:25:42;4.10;;;3.70;;
16133;SDS011;8172;45.018;5.972;2023-05-02T03:30:53;4.33;;;3.30;;
16133;SDS011;8172;45.018;5.972;2023-05-02T03:36:02;4.33;;;2.80;;
16133;SDS011;8172;45.018;5.972;2023-05-02T03:41:11;3.23;;;2.63;;
16133;SDS011;8172;45.018;5.972;2023-05-02T03:46:20;3.53;;;3.03;;
16133;SDS011;8172;45.018;5.972;2023-05-02T03:51:29;3.10;;;2.80;;
16133;SDS011;8172;45.018;5.972;2023-05-02T03:56:38;4.07;;;2.30;;
16133;SDS011;8172;45.018;5.972;2023-05-02T04:01:48;3.10;;;2.77;;
16133;SDS011;8172;45.018;5.972;2023-05-02T04:06:59;2.67;;;2.47;;
16133;SDS011;8172;45.018;5.972;2023-05-02T04:12:10;5.17;;;3.77;;
16133;SDS011;8172;45.018;5.972;2023-05-02T04:17:20;14.13;;;3.70;;
16133;SDS011;8172;45.018;5.972;2023-05-02T04:22:29;4.77;;;3.93;;
16133;SDS011;8172;45.018;5.972;2023-05-02T04:27:39;93.43;;;7.20;;
16133;SDS011;8172;45.018;5.972;2023-05-02T04:32:49;8.23;;;4.80;;
16133;SDS011;8172;45.018;5.972;2023-05-02T04:37:57;9.63;;;5.00;;
16133;SDS011;8172;45.018;5.972;2023-05-02T04:43:06;41.57;;;5.80;;
16133;SDS011;8172;45.018;5.972;2023-05-02T04:48:15;37.27;;;5.13;;
16133;SDS011;8172;45.018;5.972;2023-05-02T04:53:23;17.87;;;4.73;;
16133;SDS011;8172;45.018;5.972;2023-05-02T04:58:32;74.70;;;5.80;;
16133;SDS011;8172;45.018;5.972;2023-05-02T05:03:41;86.37;;;6.63;;
16133;SDS011;8172;45.018;5.972;2023-05-02T05:08:51;164.57;;;8.10;;
16133;SDS011;8172;45.018;5.972;2023-05-02T05:13:59;140.50;;;8.30;;
16133;SDS011;8172;45.018;5.972;2023-05-02T05:19:11;82.27;;;7.33;;
16133;SDS011;8172;45.018;5.972;2023-05-02T05:24:20;81.37;;;7.43;;
16133;SDS011;8172;45.018;5.972;2023-05-02T05:29:30;206.60;;;11.33;;
16133;SDS011;8172;45.018;5.972;2023-05-02T05:34:42;303.70;;;13.80;;
16133;SDS011;8172;45.018;5.972;2023-05-02T05:39:51;336.10;;;14.23;;
16133;SDS011;8172;45.018;5.972;2023-05-02T05:45:00;218.57;;;13.10;;
16133;SDS011;8172;45.018;5.972;2023-05-02T05:50:08;277.63;;;15.07;;
16133;SDS011;8172;45.018;5.972;2023-05-02T05:55:18;312.57;;;17.80;;
16133;SDS011;8172;45.018;5.972;2023-05-02T06:00:26;199.87;;;13.90;;
16133;SDS011;8172;45.018;5.972;2023-05-02T06:05:34;50.47;;;9.93;;
16133;SDS011;8172;45.018;5.972;2023-05-02T06:10:44;7.97;;;7.00;;
16133;SDS011;8172;45.018;5.972;2023-05-02T06:15:53;7.63;;;6.13;;
16133;SDS011;8172;45.018;5.972;2023-05-02T06:21:05;8.10;;;6.07;;
16133;SDS011;8172;45.018;5.972;2023-05-02T06:26:12;6.80;;;6.10;;
16133;SDS011;8172;45.018;5.972;2023-05-02T06:31:21;5.00;;;4.50;;
16133;SDS011;8172;45.018;5.972;2023-05-02T06:36:29;4.40;;;4.00;;
16133;SDS011;8172;45.018;5.972;2023-05-02T06:41:36;5.83;;;5.23;;
16133;SDS011;8172;45.018;5.972;2023-05-02T06:46:46;9.03;;;4.93;;
16133;SDS011;8172;45.018;5.972;2023-05-02T06:51:55;7.37;;;4.30;;
16133;SDS011;8172;45.018;5.972;2023-05-02T06:57:02;3.73;;;3.27;;
16133;SDS011;8172;45.018;5.972;2023-05-02T07:02:10;2.47;;;2.10;;
16133;SDS011;8172;45.018;5.972;2023-05-02T07:07:19;2.40;;;2.17;;
16133;SDS011;8172;45.018;5.972;2023-05-02T07:12:28;2.63;;;2.43;;
16133;SDS011;8172;45.018;5.972;2023-05-02T07:17:37;5.50;;;3.03;;
16133;SDS011;8172;45.018;5.972;2023-05-02T07:22:46;3.73;;;3.40;;
16133;SDS011;8172;45.018;5.972;2023-05-02T07:27:54;5.20;;;3.73;;
16133;SDS011;8172;45.018;5.972;2023-05-02T07:33:02;4.53;;;3.77;;
16133;SDS011;8172;45.018;5.972;2023-05-02T07:38:11;4.23;;;3.83;;
16133;SDS011;8172;45.018;5.972;2023-05-02T07:43:19;3.20;;;2.90;;
16133;SDS011;8172;45.018;5.972;2023-05-02T07:48:27;4.13;;;3.50;;
16133;SDS011;8172;45.018;5.972;2023-05-02T07:53:36;3.37;;;3.07;;
16133;SDS011;8172;45.018;5.972;2023-05-02T07:58:44;3.37;;;3.07;;
16133;SDS011;8172;45.018;5.972;2023-05-02T08:03:52;3.70;;;2.70;;
16133;SDS011;8172;45.018;5.972;2023-05-02T08:09:03;2.07;;;1.77;;
16133;SDS011;8172;45.018;5.972;2023-05-02T08:14:12;2.07;;;1.77;;
16133;SDS011;8172;45.018;5.972;2023-05-02T08:19:21;2.57;;;1.90;;
16133;SDS011;8172;45.018;5.972;2023-05-02T08:24:29;2.57;;;2.37;;
16133;SDS011;8172;45.018;5.972;2023-05-02T08:29:37;5.43;;;1.80;;
16133;SDS011;8172;45.018;5.972;2023-05-02T08:34:45;1.70;;;1.60;;
16133;SDS011;8172;45.018;5.972;2023-05-02T08:39:53;1.80;;;1.70;;
16133;SDS011;8172;45.018;5.972;2023-05-02T08:45:02;2.53;;;1.80;;
16133;SDS011;8172;45.018;5.972;2023-05-02T08:50:11;1.67;;;1.57;;
16133;SDS011;8172;45.018;5.972;2023-05-02T08:55:20;1.90;;;1.70;;
16133;SDS011;8172;45.018;5.972;2023-05-02T09:00:30;1.90;;;1.60;;
16133;SDS011;8172;45.018;5.972;2023-05-02T09:05:40;1.73;;;1.50;;
16133;SDS011;8172;45.018;5.972;2023-05-02T09:10:49;1.50;;;1.40;;
16133;SDS011;8172;45.018;5.972;2023-05-02T09:21:12;1.93;;;1.33;;
16133;SDS011;8172;45.018;5.972;2023-05-02T09:26:27;1.70;;;1.60;;
16133;SDS011;8172;45.018;5.972;2023-05-02T09:31:38;1.73;;;1.30;;
16133;SDS011;8172;45.018;5.972;2023-05-02T09:36:50;1.60;;;1.40;;
16133;SDS011;8172;45.018;5.972;2023-05-02T09:41:59;2.63;;;1.40;;
16133;SDS011;8172;45.018;5.972;2023-05-02T09:47:08;1.60;;;1.50;;
16133;SDS011;8172;45.018;5.972;2023-05-02T09:52:19;1.60;;;1.50;;
16133;SDS011;8172;45.018;5.972;2023-05-02T09:57:38;1.90;;;1.40;;
16133;SDS011;8172;45.018;5.972;2023-05-02T10:02:39;1.40;;;1.30;;
16133;SDS011;8172;45.018;5.972;2023-05-02T10:07:48;2.10;;;1.20;;
16133;SDS011;8172;45.018;5.972;2023-05-02T10:12:57;1.50;;;1.40;;
16133;SDS011;8172;45.018;5.972;2023-05-02T10:18:11;4.77;;;1.67;;
16133;SDS011;8172;45.018;5.972;2023-05-02T10:23:24;2.37;;;1.30;;
16133;SDS011;8172;45.018;5.972;2023-05-02T10:28:32;1.70;;;1.50;;
16133;SDS011;8172;45.018;5.972;2023-05-02T10:33:41;1.53;;;1.40;;
16133;SDS011;8172;45.018;5.972;2023-05-02T10:38:50;1.33;;;1.23;;
16133;SDS011;8172;45.018;5.972;2023-05-02T10:44:00;2.23;;;1.40;;
16133;SDS011;8172;45.018;5.972;2023-05-02T10:49:11;1.20;;;1.10;;
16133;SDS011;8172;45.018;5.972;2023-05-02T10:54:20;3.50;;;1.30;;
16133;SDS011;8172;45.018;5.972;2023-05-02T10:59:28;1.40;;;1.30;;
16133;SDS011;8172;45.018;5.972;2023-05-02T11:09:46;1.60;;;1.50;;
16133;SDS011;8172;45.018;5.972;2023-05-02T11:14:55;1.53;;;1.30;;
16133;SDS011;8172;45.018;5.972;2023-05-02T11:35:36;2.07;;;1.20;;
16133;SDS011;8172;45.018;5.972;2023-05-02T11:40:49;1.33;;;1.23;;
16133;SDS011;8172;45.018;5.972;2023-05-02T11:46:02;2.33;;;1.30;;
16133;SDS011;8172;45.018;5.972;2023-05-02T11:51:13;1.97;;;1.20;;
16133;SDS011;8172;45.018;5.972;2023-05-02T11:56:23;1.77;;;1.20;;
16133;SDS011;8172;45.018;5.972;2023-05-02T12:01:33;1.40;;;1.30;;
16133;SDS011;8172;45.018;5.972;2023-05-02T12:11:53;3.53;;;1.20;;
16133;SDS011;8172;45.018;5.972;2023-05-02T12:17:02;1.43;;;1.33;;
16133;SDS011;8172;45.018;5.972;2023-05-02T12:22:12;2.20;;;1.50;;
16133;SDS011;8172;45.018;5.972;2023-05-02T12:27:20;1.77;;;1.27;;
16133;SDS011;8172;45.018;5.972;2023-05-02T12:32:31;1.43;;;1.27;;
16133;SDS011;8172;45.018;5.972;2023-05-02T12:37:43;1.80;;;1.40;;
16133;SDS011;8172;45.018;5.972;2023-05-02T12:53:14;2.13;;;1.30;;
16133;SDS011;8172;45.018;5.972;2023-05-02T12:58:23;1.30;;;1.20;;
16133;SDS011;8172;45.018;5.972;2023-05-02T13:03:33;1.50;;;1.40;;
16133;SDS011;8172;45.018;5.972;2023-05-02T13:08:41;1.40;;;1.30;;
16133;SDS011;8172;45.018;5.972;2023-05-02T13:13:50;1.40;;;1.30;;
16133;SDS011;8172;45.018;5.972;2023-05-02T13:18:59;1.90;;;1.40;;
16133;SDS011;8172;45.018;5.972;2023-05-02T13:24:08;1.83;;;1.43;;
16133;SDS011;8172;45.018;5.972;2023-05-02T13:29:16;1.70;;;1.43;;
16133;SDS011;8172;45.018;5.972;2023-05-02T13:34:25;1.97;;;1.40;;
16133;SDS011;8172;45.018;5.972;2023-05-02T13:39:34;1.87;;;1.37;;
16133;SDS011;8172;45.018;5.972;2023-05-02T13:44:42;1.40;;;1.30;;
16133;SDS011;8172;45.018;5.972;2023-05-02T13:49:51;1.60;;;1.50;;
16133;SDS011;8172;45.018;5.972;2023-05-02T13:54:59;1.43;;;1.33;;
16133;SDS011;8172;45.018;5.972;2023-05-02T14:00:07;1.50;;;1.40;;
16133;SDS011;8172;45.018;5.972;2023-05-02T14:05:16;1.47;;;1.33;;
16133;SDS011;8172;45.018;5.972;2023-05-02T14:10:24;1.60;;;1.33;;
16133;SDS011;8172;45.018;5.972;2023-05-02T14:15:32;2.03;;;1.30;;
16133;SDS011;8172;45.018;5.972;2023-05-02T14:20:43;1.30;;;1.20;;
16133;SDS011;8172;45.018;5.972;2023-05-02T14:25:53;1.30;;;1.20;;
16133;SDS011;8172;45.018;5.972;2023-05-02T14:31:02;1.40;;;1.30;;
16133;SDS011;8172;45.018;5.972;2023-05-02T14:36:12;7.40;;;2.07;;
16133;SDS011;8172;45.018;5.972;2023-05-02T14:41:21;1.87;;;1.50;;
16133;SDS011;8172;45.018;5.972;2023-05-02T14:46:32;3.00;;;1.30;;
16133;SDS011;8172;45.018;5.972;2023-05-02T14:51:41;1.53;;;1.40;;
16133;SDS011;8172;45.018;5.972;2023-05-02T14:56:51;4.23;;;1.67;;
16133;SDS011;8172;45.018;5.972;2023-05-02T15:01:59;2.77;;;1.70;;
16133;SDS011;8172;45.018;5.972;2023-05-02T15:07:09;1.90;;;1.40;;
16133;SDS011;8172;45.018;5.972;2023-05-02T15:12:19;3.00;;;1.50;;
16133;SDS011;8172;45.018;5.972;2023-05-02T15:17:27;3.50;;;1.57;;
16133;SDS011;8172;45.018;5.972;2023-05-02T15:22:35;4.33;;;2.20;;
16133;SDS011;8172;45.018;5.972;2023-05-02T15:27:43;2.30;;;1.67;;
16133;SDS011;8172;45.018;5.972;2023-05-02T15:32:51;1.80;;;1.70;;
16133;SDS011;8172;45.018;5.972;2023-05-02T15:37:59;2.93;;;1.50;;
16133;SDS011;8172;45.018;5.972;2023-05-02T15:43:08;2.43;;;1.60;;
16133;SDS011;8172;45.018;5.972;2023-05-02T15:48:16;3.07;;;1.67;;
16133;SDS011;8172;45.018;5.972;2023-05-02T15:53:24;1.70;;;1.60;;
16133;SDS011;8172;45.018;5.972;2023-05-02T15:58:34;2.23;;;1.50;;
16133;SDS011;8172;45.018;5.972;2023-05-02T16:03:43;2.20;;;1.57;;
16133;SDS011;8172;45.018;5.972;2023-05-02T16:08:52;3.00;;;1.63;;
16133;SDS011;8172;45.018;5.972;2023-05-02T16:14:00;1.97;;;1.43;;
16133;SDS011;8172;45.018;5.972;2023-05-02T16:19:09;2.00;;;1.70;;
16133;SDS011;8172;45.018;5.972;2023-05-02T16:24:21;3.17;;;1.60;;
16133;SDS011;8172;45.018;5.972;2023-05-02T16:29:29;3.47;;;1.70;;
16133;SDS011;8172;45.018;5.972;2023-05-02T16:34:37;2.00;;;1.80;;
16133;SDS011;8172;45.018;5.972;2023-05-02T16:39:46;2.10;;;1.90;;
16133;SDS011;8172;45.018;5.972;2023-05-02T16:44:54;2.70;;;1.80;;
16133;SDS011;8172;45.018;5.972;2023-05-02T16:50:03;2.00;;;1.80;;
16133;SDS011;8172;45.018;5.972;2023-05-02T16:55:11;2.80;;;2.17;;
16133;SDS011;8172;45.018;5.972;2023-05-02T17:00:20;2.10;;;1.80;;
16133;SDS011;8172;45.018;5.972;2023-05-02T17:05:29;3.37;;;1.70;;
16133;SDS011;8172;45.018;5.972;2023-05-02T17:10:36;3.83;;;1.80;;
16133;SDS011;8172;45.018;5.972;2023-05-02T17:15:44;2.07;;;1.87;;
16133;SDS011;8172;45.018;5.972;2023-05-02T17:20:54;3.60;;;2.00;;
16133;SDS011;8172;45.018;5.972;2023-05-02T17:26:06;2.00;;;1.80;;
16133;SDS011;8172;45.018;5.972;2023-05-02T17:31:17;2.20;;;2.00;;
16133;SDS011;8172;45.018;5.972;2023-05-02T17:36:27;5.63;;;1.80;;
16133;SDS011;8172;45.018;5.972;2023-05-02T17:41:36;3.10;;;1.90;;
16133;SDS011;8172;45.018;5.972;2023-05-02T17:46:48;2.23;;;2.03;;
16133;SDS011;8172;45.018;5.972;2023-05-02T17:51:58;2.20;;;1.90;;
16133;SDS011;8172;45.018;5.972;2023-05-02T17:57:07;2.00;;;1.80;;
16133;SDS011;8172;45.018;5.972;2023-05-02T18:02:17;3.53;;;2.00;;
16133;SDS011;8172;45.018;5.972;2023-05-02T18:07:28;3.13;;;2.03;;
16133;SDS011;8172;45.018;5.972;2023-05-02T18:12:37;4.57;;;2.47;;
16133;SDS011;8172;45.018;5.972;2023-05-02T18:17:45;2.43;;;2.00;;
16133;SDS011;8172;45.018;5.972;2023-05-02T18:22:53;2.43;;;2.00;;
16133;SDS011;8172;45.018;5.972;2023-05-02T18:28:03;2.10;;;1.90;;
16133;SDS011;8172;45.018;5.972;2023-05-02T18:33:12;2.17;;;1.80;;
16133;SDS011;8172;45.018;5.972;2023-05-02T18:38:22;2.73;;;2.07;;
16133;SDS011;8172;45.018;5.972;2023-05-02T18:43:31;2.73;;;1.90;;
16133;SDS011;8172;45.018;5.972;2023-05-02T18:48:39;5.77;;;2.00;;
16133;SDS011;8172;45.018;5.972;2023-05-02T18:53:48;2.67;;;2.00;;
16133;SDS011;8172;45.018;5.972;2023-05-02T18:58:58;2.10;;;1.90;;
16133;SDS011;8172;45.018;5.972;2023-05-02T19:04:10;3.50;;;1.60;;
16133;SDS011;8172;45.018;5.972;2023-05-02T19:09:19;1.97;;;1.70;;
16133;SDS011;8172;45.018;5.972;2023-05-02T19:14:27;2.57;;;1.87;;
16133;SDS011;8172;45.018;5.972;2023-05-02T19:19:38;1.73;;;1.63;;
16133;SDS011;8172;45.018;5.972;2023-05-02T19:24:46;2.03;;;1.80;;
16133;SDS011;8172;45.018;5.972;2023-05-02T19:29:56;1.87;;;1.77;;
16133;SDS011;8172;45.018;5.972;2023-05-02T19:35:04;2.37;;;1.70;;
16133;SDS011;8172;45.018;5.972;2023-05-02T19:40:15;3.73;;;1.90;;
16133;SDS011;8172;45.018;5.972;2023-05-02T19:45:24;1.80;;;1.70;;
16133;SDS011;8172;45.018;5.972;2023-05-02T19:50:35;2.17;;;1.80;;
16133;SDS011;8172;45.018;5.972;2023-05-02T19:55:43;2.00;;;1.80;;
16133;SDS011;8172;45.018;5.972;2023-05-02T20:00:54;2.07;;;1.90;;
16133;SDS011;8172;45.018;5.972;2023-05-02T20:06:02;2.23;;;2.00;;
16133;SDS011;8172;45.018;5.972;2023-05-02T20:11:11;3.67;;;2.10;;
16133;SDS011;8172;45.018;5.972;2023-05-02T20:16:19;2.27;;;2.00;;
16133;SDS011;8172;45.018;5.972;2023-05-02T20:21:27;2.77;;;1.80;;
16133;SDS011;8172;45.018;5.972;2023-05-02T20:26:37;2.10;;;1.90;;
16133;SDS011;8172;45.018;5.972;2023-05-02T20:31:45;3.13;;;1.90;;
16133;SDS011;8172;45.018;5.972;2023-05-02T20:36:56;1.87;;;1.73;;
16133;SDS011;8172;45.018;5.972;2023-05-02T20:42:06;3.53;;;1.70;;
16133;SDS011;8172;45.018;5.972;2023-05-02T20:47:14;4.00;;;2.13;;
16133;SDS011;8172;45.018;5.972;2023-05-02T20:52:22;2.17;;;1.90;;
16133;SDS011;8172;45.018;5.972;2023-05-02T20:57:30;3.10;;;1.70;;
16133;SDS011;8172;45.018;5.972;2023-05-02T21:02:39;2.27;;;1.70;;
16133;SDS011;8172;45.018;5.972;2023-05-02T21:07:48;2.00;;;1.77;;
16133;SDS011;8172;45.018;5.972;2023-05-02T21:12:55;2.20;;;2.00;;
16133;SDS011;8172;45.018;5.972;2023-05-02T21:18:04;4.40;;;2.17;;
16133;SDS011;8172;45.018;5.972;2023-05-02T21:23:12;2.93;;;2.00;;
16133;SDS011;8172;45.018;5.972;2023-05-02T21:28:20;1.97;;;1.83;;
16133;SDS011;8172;45.018;5.972;2023-05-02T21:33:29;2.30;;;1.80;;
16133;SDS011;8172;45.018;5.972;2023-05-02T21:38:37;2.17;;;1.97;;
16133;SDS011;8172;45.018;5.972;2023-05-02T21:43:46;3.03;;;1.70;;
16133;SDS011;8172;45.018;5.972;2023-05-02T21:48:54;2.40;;;2.00;;
16133;SDS011;8172;45.018;5.972;2023-05-02T21:54:02;2.70;;;2.07;;
16133;SDS011;8172;45.018;5.972;2023-05-02T21:59:10;2.10;;;1.90;;
16133;SDS011;8172;45.018;5.972;2023-05-02T22:04:18;3.20;;;2.20;;
16133;SDS011;8172;45.018;5.972;2023-05-02T22:09:25;3.67;;;1.93;;
16133;SDS011;8172;45.018;5.972;2023-05-02T22:14:34;2.10;;;1.90;;
16133;SDS011;8172;45.018;5.972;2023-05-02T22:24:57;2.40;;;2.00;;
16133;SDS011;8172;45.018;5.972;2023-05-02T22:30:07;2.50;;;2.23;;
16133;SDS011;8172;45.018;5.972;2023-05-02T22:35:17;2.83;;;2.20;;
16133;SDS011;8172;45.018;5.972;2023-05-02T22:40:27;2.20;;;2.00;;
16133;SDS011;8172;45.018;5.972;2023-05-02T22:45:36;3.17;;;1.87;;
16133;SDS011;8172;45.018;5.972;2023-05-02T22:50:45;2.90;;;2.30;;
16133;SDS011;8172;45.018;5.972;2023-05-02T22:55:54;2.20;;;1.93;;
16133;SDS011;8172;45.018;5.972;2023-05-02T23:01:06;2.73;;;2.10;;
16133;SDS011;8172;45.018;5.972;2023-05-02T23:06:15;3.40;;;2.00;;
16133;SDS011;8172;45.018;5.972;2023-05-02T23:11:23;2.90;;;2.10;;
16133;SDS011;8172;45.018;5.972;2023-05-02T23:16:30;2.40;;;2.20;;
16133;SDS011;8172;45.018;5.972;2023-05-02T23:21:38;2.00;;;1.80;;
16133;SDS011;8172;45.018;5.972;2023-05-02T23:26:47;2.10;;;1.90;;
16133;SDS011;8172;45.018;5.972;2023-05-02T23:31:55;2.90;;;2.20;;
16133;SDS011;8172;45.018;5.972;2023-05-02T23:37:03;2.97;;;2.00;;
16133;SDS011;8172;45.018;5.972;2023-05-02T23:42:13;2.73;;;2.07;;
16133;SDS011;8172;45.018;5.972;2023-05-02T23:47:21;2.73;;;2.10;;
16133;SDS011;8172;45.018;5.972;2023-05-02T23:52:33;3.17;;;2.07;;
16133;SDS011;8172;45.018;5.972;2023-05-02T23:57:41;3.70;;;2.00;;
